Sherbrooke, Canada
Current Conditions -  °F | °C
As of 3:00 PM on Wednesday 28 Jan 2015 (Local Time) from CYSC Reporting Station
Clear Clear  
Wind Chill: -3°   Ceiling: Unl
Heat Index: 10°   Visibility: 9mi
Dew Point: -4°   Wind: 10mph
Humidity: 52%   Direction: 260°W
Pressure: 30.09"   Gusts: NA
Location:  45.4°N, 71.89°W
Report Text: CYSC 282000Z AUTO 26009KT 9SM CLR M12/M20 A3009 RMK SLP208
Loading
Personal Weather Stations






























Interactive Weather Map New forecast layout! Learn more

10-Day Weather Forecast

Advertisements
Track Severe Weather on mobile